Aviation Digital Data Service (ADDS)

Output produced by METARs form (0406 UTC 28 November 2014)
found at http://aviationweather.gov/adds/metars/
 
KEWR 280233Z 2803/2906 30009KT P6SM SCT030 BKN100 
     FM281400 31014G21KT P6SM BKN040 
     FM290000 30008KT P6SM BKN100